createdAt,value
2023-01-12T00:02:23.553Z,80.87
2023-01-12T00:04:51.470Z,80.98
2023-01-12T00:07:20.602Z,81.05
2023-01-12T00:09:49.162Z,81.05
2023-01-12T00:12:17.049Z,80.84
2023-01-12T00:14:44.857Z,81.13
2023-01-12T00:17:16.841Z,81.22
2023-01-12T00:19:44.628Z,81.34
2023-01-12T00:22:12.733Z,81.32
2023-01-12T00:24:44.144Z,81.10
2023-01-12T00:27:15.243Z,81.04
2023-01-12T00:29:44.186Z,81.05
2023-01-12T00:32:15.501Z,81.21
2023-01-12T00:34:43.627Z,81.28
2023-01-12T00:37:11.933Z,81.29
2023-01-12T00:39:43.012Z,81.12
2023-01-12T00:42:32.178Z,81.22
2023-01-12T00:45:18.830Z,81.16
2023-01-12T00:47:46.983Z,81.20
2023-01-12T00:50:15.351Z,81.23
2023-01-12T00:52:43.640Z,81.11
2023-01-12T00:55:11.753Z,81.07
2023-01-12T00:57:40.229Z,81.52
2023-01-12T01:00:09.055Z,81.18
2023-01-12T01:02:37.480Z,81.46
2023-01-12T01:05:05.700Z,81.26
2023-01-12T01:07:34.877Z,81.58
2023-01-12T01:10:03.114Z,81.32
2023-01-12T01:12:31.252Z,81.52
2023-01-12T01:14:59.097Z,81.25
2023-01-12T01:17:28.978Z,81.41
2023-01-12T01:19:56.879Z,81.39
2023-01-12T01:22:24.727Z,81.19
2023-01-12T01:24:52.724Z,81.18
2023-01-12T01:27:20.594Z,81.35
2023-01-12T01:29:48.781Z,81.48
2023-01-12T01:32:16.897Z,81.28
2023-01-12T01:34:46.466Z,81.51
2023-01-12T01:37:14.510Z,81.36
2023-01-12T01:39:42.674Z,81.10
2023-01-12T01:42:28.237Z,81.57
2023-01-12T01:44:58.745Z,81.56
2023-01-12T01:47:36.740Z,81.58
2023-01-12T01:50:19.322Z,81.37
2023-01-12T01:52:52.479Z,81.36
2023-01-12T01:55:23.968Z,81.42
2023-01-12T01:57:54.073Z,81.30
2023-01-12T02:00:23.339Z,81.29
2023-01-12T02:02:52.612Z,81.37
2023-01-12T02:05:23.892Z,81.50
2023-01-12T02:07:52.981Z,81.72
2023-01-12T02:10:21.547Z,81.69
2023-01-12T02:13:08.872Z,81.42
2023-01-12T02:16:21.316Z,81.61
2023-01-12T02:19:25.716Z,81.49
2023-01-12T02:22:23.507Z,81.31
2023-01-12T02:25:09.600Z,81.76
2023-01-12T02:28:05.887Z,81.53
2023-01-12T02:30:52.518Z,81.54
2023-01-12T02:33:52.857Z,81.53
2023-01-12T02:36:35.977Z,81.77
2023-01-12T02:39:39.216Z,81.56
2023-01-12T02:42:29.237Z,81.66
2023-01-12T02:45:19.353Z,81.66
2023-01-12T02:47:53.022Z,81.74
2023-01-12T02:50:46.345Z,81.42
2023-01-12T02:53:30.297Z,81.43
2023-01-12T02:56:04.810Z,81.37
2023-01-12T02:58:36.868Z,81.34
2023-01-12T03:01:06.026Z,81.40
2023-01-12T03:03:35.231Z,81.48
2023-01-12T03:06:05.868Z,81.51
2023-01-12T03:08:37.589Z,81.38
2023-01-12T03:11:16.104Z,81.51
2023-01-12T03:13:48.240Z,81.52
2023-01-12T03:16:24.222Z,81.48
2023-01-12T03:19:09.692Z,81.37
2023-01-12T03:21:41.029Z,81.29
2023-01-12T03:24:12.577Z,81.30
2023-01-12T03:26:47.779Z,81.33
2023-01-12T03:29:40.923Z,81.39
2023-01-12T03:32:08.770Z,81.27
2023-01-12T03:34:37.408Z,81.14
2023-01-12T03:37:15.056Z,81.35
2023-01-12T03:40:00.570Z,81.34
2023-01-12T03:42:36.781Z,81.59
2023-01-12T03:45:29.055Z,81.25
2023-01-12T03:48:08.010Z,81.23
2023-01-12T03:50:41.707Z,81.16
2023-01-12T03:53:10.655Z,81.30
2023-01-12T03:55:39.556Z,81.22
2023-01-12T03:58:07.479Z,81.31
2023-01-12T04:00:35.563Z,81.07
2023-01-12T04:03:09.711Z,80.93
2023-01-12T04:05:38.619Z,80.83
2023-01-12T04:08:06.726Z,80.86
2023-01-12T04:10:34.721Z,80.82
2023-01-12T04:13:02.554Z,80.95
2023-01-12T04:15:30.711Z,80.71
2023-01-12T04:17:58.600Z,80.56
2023-01-12T04:20:26.369Z,80.62
2023-01-12T04:22:54.436Z,80.46
2023-01-12T04:25:23.210Z,80.57
2023-01-12T04:28:05.001Z,80.41
2023-01-12T04:30:33.860Z,80.51
2023-01-12T04:33:08.276Z,80.31
2023-01-12T04:35:36.773Z,80.46
2023-01-12T04:38:10.193Z,80.48
2023-01-12T04:40:38.495Z,80.34
2023-01-12T04:43:08.757Z,80.34
2023-01-12T04:45:39.342Z,80.17
2023-01-12T04:48:11.951Z,80.25
2023-01-12T04:50:40.823Z,79.98
2023-01-12T04:53:11.454Z,80.35
2023-01-12T04:55:41.436Z,80.11
2023-01-12T04:58:09.943Z,79.83
2023-01-12T05:00:37.909Z,79.87
2023-01-12T05:03:11.770Z,79.82
2023-01-12T05:05:39.714Z,79.90
2023-01-12T05:08:26.255Z,79.83
2023-01-12T05:10:56.591Z,79.80
2023-01-12T05:13:26.652Z,79.97
2023-01-12T05:15:54.789Z,79.97
2023-01-12T05:18:23.377Z,79.92
2023-01-12T05:20:51.157Z,80.07
2023-01-12T05:23:19.111Z,80.12
2023-01-12T05:25:49.777Z,80.12
2023-01-12T05:28:17.576Z,80.00
2023-01-12T05:30:45.822Z,79.98
2023-01-12T05:33:16.592Z,80.03
2023-01-12T05:35:44.376Z,80.04
2023-01-12T05:38:12.577Z,80.11
2023-01-12T05:40:40.635Z,80.01
2023-01-12T05:43:31.419Z,79.89
2023-01-12T05:46:04.708Z,79.92
2023-01-12T05:48:33.205Z,79.84
2023-01-12T05:51:05.152Z,79.83
2023-01-12T05:53:33.153Z,79.97
2023-01-12T05:56:08.177Z,79.90
2023-01-12T05:58:37.276Z,80.06
2023-01-12T06:01:09.871Z,79.89
2023-01-12T06:03:37.888Z,79.82
2023-01-12T06:06:06.270Z,79.83
2023-01-12T06:08:34.238Z,79.87
2023-01-12T06:11:04.452Z,79.95
2023-01-12T06:13:51.507Z,79.94
2023-01-12T06:16:19.328Z,79.98
2023-01-12T06:18:47.646Z,79.99
2023-01-12T06:21:15.766Z,79.98
2023-01-12T06:23:43.582Z,80.16
2023-01-12T06:26:11.959Z,80.04
2023-01-12T06:28:40.759Z,79.87
2023-01-12T06:31:11.437Z,79.84
2023-01-12T06:33:40.040Z,79.74
2023-01-12T06:36:08.199Z,79.85
2023-01-12T06:38:37.542Z,79.65
2023-01-12T06:41:33.630Z,79.81
2023-01-12T06:44:01.690Z,79.69
2023-01-12T06:46:29.687Z,79.88
2023-01-12T06:48:58.886Z,79.78
2023-01-12T06:51:27.156Z,79.88
2023-01-12T06:53:55.939Z,79.86
2023-01-12T06:56:24.228Z,79.87
2023-01-12T06:58:51.997Z,79.87
2023-01-12T07:01:20.187Z,79.98
2023-01-12T07:03:48.250Z,80.02
2023-01-12T07:06:16.802Z,79.91
2023-01-12T07:08:45.119Z,80.13
2023-01-12T07:11:15.326Z,79.92
2023-01-12T07:13:43.112Z,79.74
2023-01-12T07:16:11.138Z,79.60
2023-01-12T07:18:39.044Z,79.69
2023-01-12T07:21:08.831Z,79.53
2023-01-12T07:23:37.937Z,79.51
2023-01-12T07:26:05.728Z,79.54
2023-01-12T07:28:34.461Z,79.52
2023-01-12T07:31:04.418Z,79.47
2023-01-12T07:33:32.691Z,79.13
2023-01-12T07:36:01.927Z,79.38
2023-01-12T07:38:30.972Z,79.09
2023-01-12T07:41:02.565Z,79.00
2023-01-12T07:43:30.666Z,79.23
2023-01-12T07:45:59.815Z,79.05
2023-01-12T07:48:27.956Z,79.10
2023-01-12T07:50:58.872Z,79.06
2023-01-12T07:53:27.027Z,78.68
2023-01-12T07:55:55.146Z,78.93
2023-01-12T07:58:22.903Z,79.01
2023-01-12T08:00:51.130Z,78.89
2023-01-12T08:03:19.980Z,78.87
2023-01-12T08:05:47.882Z,79.09
2023-01-12T08:08:16.060Z,78.91
2023-01-12T08:10:45.544Z,79.09
2023-01-12T08:13:13.843Z,79.27
2023-01-12T08:15:50.287Z,79.28
2023-01-12T08:18:25.067Z,79.01
2023-01-12T08:20:54.643Z,78.72
2023-01-12T08:23:32.837Z,78.82
2023-01-12T08:26:04.378Z,78.53
2023-01-12T08:28:35.842Z,78.66
2023-01-12T08:31:05.903Z,78.41
2023-01-12T08:33:34.025Z,78.51
2023-01-12T08:36:04.353Z,78.74
2023-01-12T08:38:32.728Z,78.69
2023-01-12T08:41:19.543Z,78.51
2023-01-12T08:44:03.270Z,78.49
2023-01-12T08:46:32.493Z,78.62
2023-01-12T08:49:01.294Z,78.26
2023-01-12T08:51:29.253Z,78.16
2023-01-12T08:53:57.091Z,78.15
2023-01-12T08:56:25.244Z,78.21
2023-01-12T08:58:53.420Z,78.25
2023-01-12T09:01:22.147Z,78.56
2023-01-12T09:03:50.493Z,78.33
2023-01-12T09:06:30.336Z,78.27
2023-01-12T09:09:05.212Z,78.06
2023-01-12T09:11:33.216Z,77.87
2023-01-12T09:14:01.972Z,77.57
2023-01-12T09:16:31.223Z,76.94
2023-01-12T09:18:59.752Z,76.25
2023-01-12T09:21:29.290Z,75.58
2023-01-12T09:23:57.257Z,74.29
2023-01-12T09:26:34.286Z,73.13
2023-01-12T09:29:04.384Z,72.41
2023-01-12T09:31:33.104Z,72.51
2023-01-12T09:34:01.469Z,73.23
2023-01-12T09:36:31.713Z,73.67
2023-01-12T09:38:59.676Z,73.57
2023-01-12T09:42:06.711Z,74.24
2023-01-12T09:44:58.635Z,74.41
2023-01-12T09:47:36.842Z,74.74
2023-01-12T09:50:12.203Z,74.56
2023-01-12T09:52:47.759Z,74.73
2023-01-12T09:55:21.083Z,75.20
2023-01-12T09:57:56.010Z,75.24
2023-01-12T10:00:25.021Z,75.45
2023-01-12T10:03:08.528Z,75.60
2023-01-12T10:05:42.677Z,75.10
2023-01-12T10:08:28.211Z,74.86
2023-01-12T10:11:21.182Z,75.07
2023-01-12T10:13:54.861Z,75.21
2023-01-12T10:17:07.586Z,74.97
2023-01-12T10:19:51.034Z,75.56
2023-01-12T10:22:39.032Z,75.56
2023-01-12T10:25:16.463Z,75.35
2023-01-12T10:27:46.756Z,75.03
2023-01-12T10:30:25.382Z,75.00
2023-01-12T10:32:53.396Z,75.38
2023-01-12T10:35:23.281Z,75.14
2023-01-12T10:37:52.585Z,74.84
2023-01-12T10:40:29.720Z,75.13
2023-01-12T10:43:31.915Z,75.18
2023-01-12T10:46:12.355Z,75.09
2023-01-12T10:48:46.069Z,75.33
2023-01-12T10:51:23.099Z,75.19
2023-01-12T10:54:10.503Z,74.96
2023-01-12T10:56:43.248Z,74.65
2023-01-12T10:59:14.351Z,74.64
2023-01-12T11:02:06.128Z,74.22
2023-01-12T11:04:39.029Z,74.64
2023-01-12T11:07:14.209Z,74.46
2023-01-12T11:09:43.692Z,74.52
2023-01-12T11:12:43.581Z,74.43
2023-01-12T11:15:12.257Z,74.33
2023-01-12T11:17:58.972Z,74.33
2023-01-12T11:20:31.156Z,74.19
2023-01-12T11:23:02.485Z,73.86
2023-01-12T11:25:34.894Z,73.89
2023-01-12T11:28:21.377Z,73.84
2023-01-12T11:30:54.721Z,73.49
2023-01-12T11:33:34.536Z,73.94
2023-01-12T11:36:23.832Z,73.64
2023-01-12T11:38:56.070Z,73.61
2023-01-12T11:41:34.462Z,73.44
2023-01-12T11:44:11.793Z,73.72
2023-01-12T11:46:42.722Z,73.47
2023-01-12T11:49:25.731Z,73.40
2023-01-12T11:51:58.537Z,73.45
2023-01-12T11:54:28.165Z,73.10
2023-01-12T11:57:08.243Z,72.79
2023-01-12T11:59:44.067Z,73.05
2023-01-12T12:02:38.195Z,72.96
2023-01-12T12:05:10.057Z,73.12
2023-01-12T12:07:48.599Z,73.27
2023-01-12T12:10:23.986Z,72.82
2023-01-12T12:13:07.601Z,72.58
2023-01-12T12:15:48.994Z,72.83
2023-01-12T12:18:49.851Z,73.28
2023-01-12T12:21:21.317Z,73.06
2023-01-12T12:24:27.490Z,73.05
2023-01-12T12:27:28.950Z,73.27
2023-01-12T12:30:26.307Z,72.62
2023-01-12T12:33:15.577Z,72.51
2023-01-12T12:36:08.899Z,72.32
2023-01-12T12:38:42.966Z,72.33
2023-01-12T12:41:41.413Z,72.25
2023-01-12T12:44:47.660Z,72.04
2023-01-12T12:47:34.290Z,72.51
2023-01-12T12:50:03.972Z,72.73
2023-01-12T12:52:38.126Z,72.49
2023-01-12T12:55:09.786Z,72.67
2023-01-12T12:58:00.605Z,72.74
2023-01-12T13:00:43.456Z,72.23
2023-01-12T13:03:11.589Z,72.41
2023-01-12T13:05:48.263Z,72.70
2023-01-12T13:08:27.467Z,72.56
2023-01-12T13:10:57.051Z,72.24
2023-01-12T13:13:31.419Z,72.08
2023-01-12T13:16:11.840Z,72.51
2023-01-12T13:18:48.566Z,72.32
2023-01-12T13:21:42.428Z,72.31
2023-01-12T13:24:10.334Z,72.39
2023-01-12T13:26:41.061Z,72.44
2023-01-12T13:29:27.397Z,72.64
2023-01-12T13:32:19.781Z,72.49
2023-01-12T13:34:47.951Z,72.69
2023-01-12T13:37:22.917Z,72.65
2023-01-12T13:40:20.914Z,72.61
2023-01-12T13:43:09.050Z,72.62
2023-01-12T13:45:37.754Z,72.60
2023-01-12T13:48:06.646Z,72.40
2023-01-12T13:50:35.719Z,72.60
2023-01-12T13:53:04.542Z,72.18
2023-01-12T13:55:36.208Z,72.38
2023-01-12T13:58:26.023Z,72.39
2023-01-12T14:01:03.570Z,72.36
2023-01-12T14:04:05.189Z,72.02
2023-01-12T14:06:42.162Z,72.50
2023-01-12T14:09:48.493Z,72.42
2023-01-12T14:12:26.096Z,72.24
2023-01-12T14:15:15.802Z,72.35
2023-01-12T14:17:49.901Z,72.06
2023-01-12T14:20:23.968Z,72.38
2023-01-12T14:23:19.696Z,72.62
2023-01-12T14:26:02.961Z,72.49
2023-01-12T14:28:31.578Z,72.51
2023-01-12T14:30:59.867Z,72.59
2023-01-12T14:33:31.871Z,72.59
2023-01-12T14:36:12.322Z,72.64
2023-01-12T14:38:41.619Z,72.57
2023-01-12T14:41:35.327Z,72.47
2023-01-12T14:44:23.410Z,72.74
2023-01-12T14:46:53.799Z,72.94
2023-01-12T14:49:31.076Z,72.87
2023-01-12T14:52:12.349Z,72.93
2023-01-12T14:54:40.515Z,72.89
2023-01-12T14:57:23.416Z,72.78
2023-01-12T14:59:52.057Z,72.68
2023-01-12T15:02:33.704Z,72.45
2023-01-12T15:05:10.926Z,72.74
2023-01-12T15:07:42.070Z,72.57
2023-01-12T15:10:09.775Z,72.91
2023-01-12T15:12:47.556Z,72.90
2023-01-12T15:15:21.908Z,72.90
2023-01-12T15:18:12.014Z,72.88
2023-01-12T15:21:02.131Z,72.87
2023-01-12T15:23:54.676Z,72.83
2023-01-12T15:26:22.871Z,73.13
2023-01-12T15:28:51.002Z,73.16
2023-01-12T15:31:29.512Z,73.18
2023-01-12T15:33:58.177Z,73.10
2023-01-12T15:36:26.239Z,73.22
2023-01-12T15:38:57.442Z,73.37
2023-01-12T15:41:47.873Z,73.33
2023-01-12T15:44:21.830Z,73.00
2023-01-12T15:46:49.785Z,73.11
2023-01-12T15:49:17.731Z,73.20
2023-01-12T15:51:50.351Z,72.68
2023-01-12T15:54:19.221Z,72.43
2023-01-12T15:56:48.027Z,72.56
2023-01-12T15:59:17.013Z,72.71
2023-01-12T16:01:47.422Z,72.54
2023-01-12T16:07:12.117Z,72.81
2023-01-12T16:09:41.339Z,72.87
2023-01-12T16:12:09.197Z,72.75
2023-01-12T16:14:37.790Z,72.71
2023-01-12T16:17:05.723Z,72.78
2023-01-12T16:19:40.887Z,72.94
2023-01-12T16:22:21.484Z,72.63
2023-01-12T16:24:50.807Z,72.63
2023-01-12T16:27:21.007Z,72.72
2023-01-12T16:29:49.221Z,72.42
2023-01-12T16:32:17.760Z,72.59
2023-01-12T16:34:46.375Z,72.41
2023-01-12T16:37:15.838Z,72.45
2023-01-12T16:39:44.779Z,72.28
2023-01-12T16:42:13.778Z,72.49
2023-01-12T16:44:42.145Z,72.47
2023-01-12T16:47:14.847Z,72.47
2023-01-12T16:49:43.463Z,72.64
2023-01-12T16:52:14.997Z,72.73
2023-01-12T16:54:43.841Z,72.82
2023-01-12T16:57:13.718Z,72.69
2023-01-12T16:59:42.163Z,72.61
2023-01-12T17:02:15.637Z,72.60
2023-01-12T17:04:48.088Z,72.76
2023-01-12T17:07:16.453Z,73.03
2023-01-12T17:09:44.621Z,72.47
2023-01-12T17:12:12.760Z,72.74
2023-01-12T17:14:41.435Z,72.68
2023-01-12T17:17:11.162Z,72.90
2023-01-12T17:19:45.592Z,72.94
2023-01-12T17:22:14.369Z,72.96
2023-01-12T17:24:42.857Z,72.89
2023-01-12T17:27:11.486Z,72.79
2023-01-12T17:29:39.786Z,72.54
2023-01-12T17:32:08.398Z,72.64
2023-01-12T17:34:39.063Z,72.68
2023-01-12T17:37:10.077Z,72.73
2023-01-12T17:39:43.453Z,72.74
2023-01-12T17:42:34.013Z,72.76
2023-01-12T17:45:02.930Z,72.76
2023-01-12T17:47:31.465Z,73.04
2023-01-12T17:49:59.392Z,73.05
2023-01-12T17:52:27.811Z,72.82
2023-01-12T17:54:55.787Z,73.07
2023-01-12T17:57:23.699Z,72.88
2023-01-12T17:59:52.528Z,72.78
2023-01-12T18:02:20.657Z,73.03
2023-01-12T18:04:48.815Z,73.00
2023-01-12T18:07:17.455Z,72.69
2023-01-12T18:09:45.468Z,72.64
2023-01-12T18:12:13.520Z,72.99
2023-01-12T18:14:41.992Z,72.77
2023-01-12T18:17:11.361Z,72.93
2023-01-12T18:19:41.474Z,73.04
2023-01-12T18:22:11.129Z,73.22
2023-01-12T18:24:39.244Z,73.07
2023-01-12T18:27:07.427Z,72.93
2023-01-12T18:29:35.699Z,73.04
2023-01-12T18:32:03.740Z,73.06
2023-01-12T18:34:31.670Z,73.20
2023-01-12T18:36:59.678Z,73.05
2023-01-12T18:39:27.548Z,73.07
2023-01-12T18:42:14.746Z,73.06
2023-01-12T18:44:42.888Z,73.08
2023-01-12T18:47:33.599Z,73.12
2023-01-12T18:50:21.602Z,72.92
2023-01-12T18:53:08.569Z,73.11
2023-01-12T18:55:37.640Z,73.35
2023-01-12T18:58:05.548Z,73.25
2023-01-12T19:00:33.586Z,73.00
2023-01-12T19:03:01.659Z,72.95
2023-01-12T19:05:44.417Z,73.16
2023-01-12T19:08:31.097Z,73.11
2023-01-12T19:11:10.715Z,73.29
2023-01-12T19:13:57.604Z,73.14
2023-01-12T19:16:44.165Z,73.31
2023-01-12T19:19:12.149Z,73.45
2023-01-12T19:21:58.930Z,73.37
2023-01-12T19:24:45.881Z,73.58
2023-01-12T19:27:32.511Z,73.32
2023-01-12T19:30:01.559Z,73.31
2023-01-12T19:32:29.415Z,73.29
2023-01-12T19:35:09.866Z,73.43
2023-01-12T19:37:40.307Z,73.32
2023-01-12T19:40:12.407Z,73.52
2023-01-12T19:42:59.936Z,73.16
2023-01-12T19:45:28.341Z,73.64
2023-01-12T19:47:57.894Z,73.77
2023-01-12T19:50:25.855Z,73.59
2023-01-12T19:52:53.981Z,73.55
2023-01-12T19:55:22.321Z,73.29
2023-01-12T19:57:50.374Z,73.50
2023-01-12T20:00:18.898Z,73.52
2023-01-12T20:02:47.034Z,73.26
2023-01-12T20:05:22.683Z,73.62
2023-01-12T20:07:52.764Z,73.53
2023-01-12T20:10:21.805Z,73.69
2023-01-12T20:12:52.716Z,73.64
2023-01-12T20:15:20.932Z,73.51
2023-01-12T20:17:49.365Z,73.40
2023-01-12T20:20:18.085Z,73.72
2023-01-12T20:22:49.086Z,73.63
2023-01-12T20:25:19.488Z,73.40
2023-01-12T20:27:49.395Z,73.74
2023-01-12T20:30:32.031Z,73.26
2023-01-12T20:33:06.840Z,73.08
2023-01-12T20:35:35.406Z,73.40
2023-01-12T20:38:07.108Z,73.69
2023-01-12T20:40:38.520Z,73.46
2023-01-12T20:43:07.038Z,73.45
2023-01-12T20:45:35.174Z,73.72
2023-01-12T20:48:03.825Z,73.68
2023-01-12T20:50:31.960Z,73.35
2023-01-12T20:52:59.867Z,73.37
2023-01-12T20:55:28.450Z,73.58
2023-01-12T20:57:56.657Z,73.18
2023-01-12T21:00:24.850Z,73.61
2023-01-12T21:02:53.164Z,73.66
2023-01-12T21:05:21.443Z,73.51
2023-01-12T21:07:57.047Z,73.88
2023-01-12T21:10:31.801Z,73.86
2023-01-12T21:13:00.143Z,73.47
2023-01-12T21:15:28.103Z,73.49
2023-01-12T21:17:56.137Z,73.53
2023-01-12T21:20:24.222Z,73.40
2023-01-12T21:22:52.051Z,73.60
2023-01-12T21:25:20.521Z,73.63
2023-01-12T21:27:49.883Z,73.65
2023-01-12T21:30:17.938Z,73.56
2023-01-12T21:32:46.823Z,73.60
2023-01-12T21:35:15.356Z,73.88
2023-01-12T21:37:43.363Z,73.81
2023-01-12T21:40:11.902Z,73.53
2023-01-12T21:42:58.756Z,73.70
2023-01-12T21:45:26.852Z,73.56
2023-01-12T21:47:55.537Z,73.77
2023-01-12T21:50:23.489Z,73.45
2023-01-12T21:52:52.105Z,73.53
2023-01-12T21:55:20.218Z,73.80
2023-01-12T21:57:48.291Z,73.69
2023-01-12T22:00:16.938Z,73.88
2023-01-12T22:02:44.941Z,73.91
2023-01-12T22:05:13.966Z,73.91
2023-01-12T22:07:42.110Z,73.98
2023-01-12T22:10:19.864Z,73.78
2023-01-12T22:12:50.641Z,73.78
2023-01-12T22:15:19.005Z,73.82
2023-01-12T22:17:47.488Z,73.84
2023-01-12T22:20:16.919Z,73.74
2023-01-12T22:22:45.016Z,73.92
2023-01-12T22:25:14.612Z,74.07
2023-01-12T22:27:43.310Z,73.97
2023-01-12T22:30:17.459Z,73.96
2023-01-12T22:32:45.903Z,73.97
2023-01-12T22:35:14.088Z,73.76
2023-01-12T22:37:41.873Z,74.09
2023-01-12T22:40:11.476Z,73.64
2023-01-12T22:42:58.022Z,73.79
2023-01-12T22:45:26.426Z,73.94
2023-01-12T22:47:55.789Z,74.05
2023-01-12T22:50:24.888Z,74.03
2023-01-12T22:52:54.836Z,73.99
2023-01-12T22:55:24.573Z,74.23
2023-01-12T22:57:52.318Z,73.98
2023-01-12T23:00:21.356Z,74.08
2023-01-12T23:03:02.602Z,74.07
2023-01-12T23:05:35.301Z,73.99
2023-01-12T23:08:05.592Z,73.87
2023-01-12T23:10:34.249Z,73.93
2023-01-12T23:13:11.712Z,74.33
2023-01-12T23:15:41.591Z,74.38
2023-01-12T23:18:09.949Z,74.47
2023-01-12T23:20:38.355Z,74.36
2023-01-12T23:23:07.794Z,74.16
2023-01-12T23:25:36.329Z,74.14
2023-01-12T23:28:05.986Z,74.20
2023-01-12T23:30:34.427Z,73.86
2023-01-12T23:33:04.252Z,74.01
2023-01-12T23:35:38.028Z,74.13
2023-01-12T23:38:07.977Z,74.30
2023-01-12T23:40:38.809Z,74.24
2023-01-12T23:43:06.731Z,74.73
2023-01-12T23:45:34.750Z,74.23
2023-01-12T23:48:02.742Z,74.58
2023-01-12T23:50:30.567Z,74.37
2023-01-12T23:52:58.740Z,74.51
2023-01-12T23:55:27.862Z,74.33
2023-01-12T23:57:56.037Z,74.56
